createdAt,value
2017-09-01T00:00:19.356Z,108.2
2017-09-01T00:01:20.282Z,92.9
2017-09-01T00:02:21.004Z,102.2
2017-09-01T00:03:21.741Z,115.1
2017-09-01T00:04:22.477Z,96.8
2017-09-01T00:05:23.258Z,105.8
2017-09-01T00:06:24.388Z,97.7
2017-09-01T00:07:25.166Z,111.5
2017-09-01T00:08:25.902Z,109.7
2017-09-01T00:09:26.698Z,102.1
2017-09-01T00:10:27.436Z,108.0
2017-09-01T00:11:28.366Z,94.6
2017-09-01T00:12:29.110Z,133.5
2017-09-01T00:13:29.829Z,105.6
2017-09-01T00:14:30.615Z,114.7
2017-09-01T00:15:31.358Z,123.5
2017-09-01T00:16:32.163Z,113.0
2017-09-01T00:17:32.965Z,124.0
2017-09-01T00:18:34.107Z,138.5
2017-09-01T00:19:34.836Z,137.4
2017-09-01T00:20:35.576Z,130.1
2017-09-01T00:21:36.358Z,135.7
2017-09-01T00:22:37.158Z,105.7
2017-09-01T00:23:38.129Z,123.5
2017-09-01T00:24:38.856Z,119.7
2017-09-01T00:25:39.610Z,100.9
2017-09-01T00:26:40.338Z,121.8
2017-09-01T00:27:41.138Z,111.7
2017-09-01T00:28:42.226Z,115.5
2017-09-01T00:29:42.966Z,117.4
2017-09-01T00:30:43.702Z,115.3
2017-09-01T00:31:44.451Z,111.8
2017-09-01T00:32:45.266Z,111.2
2017-09-01T00:33:46.362Z,114.9
2017-09-01T00:34:47.177Z,94.9
2017-09-01T00:35:47.997Z,121.8
2017-09-01T00:36:48.794Z,93.0
2017-09-01T00:37:49.538Z,116.1
2017-09-01T00:38:50.737Z,111.1
2017-09-01T00:39:51.470Z,108.6
2017-09-01T00:40:52.199Z,97.0
2017-09-01T00:41:53.027Z,104.3
2017-09-01T00:42:53.765Z,116.1
2017-09-01T00:43:54.826Z,114.4
2017-09-01T00:44:55.556Z,95.2
2017-09-01T00:45:56.307Z,104.0
2017-09-01T00:46:57.037Z,112.3
2017-09-01T00:47:57.767Z,100.5
2017-09-01T00:48:58.751Z,88.7
2017-09-01T00:49:59.538Z,96.1
2017-09-01T00:51:00.277Z,107.9
2017-09-01T00:52:01.008Z,113.2
2017-09-01T00:53:01.818Z,107.1
2017-09-01T00:54:02.635Z,96.4
2017-09-01T00:55:03.369Z,83.7
2017-09-01T00:56:04.188Z,95.6
2017-09-01T00:57:04.920Z,99.9
2017-09-01T00:58:05.999Z,89.8
2017-09-01T00:59:06.738Z,109.7
2017-09-01T01:00:07.550Z,124.9
2017-09-01T01:01:08.328Z,100.8
2017-09-01T01:02:09.073Z,105.7
2017-09-01T01:03:10.287Z,102.5
2017-09-01T01:04:11.021Z,98.5
2017-09-01T01:05:11.796Z,99.4
2017-09-01T01:06:12.522Z,93.2
2017-09-01T01:07:13.336Z,99.2
2017-09-01T01:08:14.274Z,96.2
2017-09-01T01:09:15.041Z,94.4
2017-09-01T01:10:15.768Z,110.8
2017-09-01T01:11:16.497Z,110.9
2017-09-01T01:12:17.232Z,108.3
2017-09-01T01:13:18.369Z,99.8
2017-09-01T01:14:19.184Z,126.5
2017-09-01T01:15:19.925Z,103.7
2017-09-01T01:16:20.657Z,119.9
2017-09-01T01:17:21.384Z,111.8
2017-09-01T01:18:22.407Z,125.3
2017-09-01T01:19:23.138Z,101.0
2017-09-01T01:20:23.907Z,118.6
2017-09-01T01:21:24.639Z,105.0
2017-09-01T01:22:25.407Z,107.6
2017-09-01T01:23:26.530Z,96.2
2017-09-01T01:24:27.256Z,111.4
2017-09-01T01:25:27.987Z,117.6
2017-09-01T01:26:28.711Z,109.6
2017-09-01T01:27:29.447Z,116.5
2017-09-01T01:28:30.379Z,121.9
2017-09-01T01:29:31.193Z,125.8
2017-09-01T01:30:31.991Z,111.3
2017-09-01T01:31:32.728Z,97.8
2017-09-01T01:32:33.465Z,106.1
2017-09-01T01:33:34.609Z,103.2
2017-09-01T01:34:35.404Z,103.5
2017-09-01T01:35:36.133Z,113.6
2017-09-01T01:36:36.912Z,126.5
2017-09-01T01:37:37.639Z,114.0
2017-09-01T01:38:38.675Z,119.6
2017-09-01T01:39:39.438Z,111.4
2017-09-01T01:40:40.163Z,134.3
2017-09-01T01:41:40.900Z,136.8
2017-09-01T01:42:41.733Z,133.6
2017-09-01T01:43:42.858Z,110.4
2017-09-01T01:44:43.598Z,104.5
2017-09-01T01:45:44.332Z,129.2
2017-09-01T01:46:45.071Z,132.9
2017-09-01T01:47:45.843Z,118.5
2017-09-01T01:48:47.029Z,134.0
2017-09-01T01:49:47.760Z,114.8
2017-09-01T01:50:48.499Z,114.1
2017-09-01T01:51:49.286Z,114.7
2017-09-01T01:52:50.027Z,136.3
2017-09-01T01:53:51.055Z,126.1
2017-09-01T01:54:51.790Z,116.6
2017-09-01T01:55:52.605Z,124.5
2017-09-01T01:56:53.335Z,131.3
2017-09-01T01:57:54.068Z,144.3
2017-09-01T01:58:55.205Z,113.4
2017-09-01T01:59:55.937Z,121.6
2017-09-01T02:00:56.755Z,110.4
2017-09-01T02:01:57.495Z,120.7
2017-09-01T02:02:58.228Z,131.7
2017-09-01T02:03:59.336Z,125.6
2017-09-01T02:05:00.136Z,131.9
2017-09-01T02:06:00.916Z,135.4
2017-09-01T02:07:01.717Z,129.7
2017-09-01T02:08:02.435Z,128.4
2017-09-01T02:09:03.460Z,130.4
2017-09-01T02:10:04.208Z,117.7
2017-09-01T02:11:05.016Z,129.6
2017-09-01T02:12:05.745Z,143.5
2017-09-01T02:13:06.484Z,124.5
2017-09-01T02:14:07.221Z,131.9
2017-09-01T02:15:07.955Z,144.7
2017-09-01T02:16:08.704Z,139.7
2017-09-01T02:17:09.434Z,156.5
2017-09-01T02:18:10.157Z,151.4
2017-09-01T02:19:11.079Z,159.8
2017-09-01T02:20:11.814Z,156.8
2017-09-01T02:21:12.546Z,181.9
2017-09-01T02:22:13.375Z,143.2
2017-09-01T02:23:14.164Z,164.6
2017-09-01T02:24:15.244Z,183.3
2017-09-01T02:25:35.187Z,181.4
2017-09-01T02:26:35.964Z,144.0
2017-09-01T02:27:36.708Z,187.5
2017-09-01T02:28:37.486Z,172.4
2017-09-01T02:29:38.568Z,200.6
2017-09-01T02:30:39.307Z,170.4
2017-09-01T02:31:40.073Z,179.4
2017-09-01T02:32:40.867Z,162.8
2017-09-01T02:33:41.625Z,188.4
2017-09-01T02:34:42.714Z,245.0
2017-09-01T02:35:43.442Z,210.9
2017-09-01T02:36:44.274Z,206.3
2017-09-01T02:37:45.078Z,176.6
2017-09-01T02:38:45.889Z,188.4
2017-09-01T02:39:46.950Z,167.9
2017-09-01T02:40:47.681Z,186.7
2017-09-01T02:41:48.407Z,166.9
2017-09-01T02:42:49.213Z,162.2
2017-09-01T02:43:49.943Z,173.1
2017-09-01T02:44:50.739Z,200.0
2017-09-01T02:45:51.471Z,178.8
2017-09-01T02:46:52.570Z,172.5
2017-09-01T02:47:53.385Z,173.4
2017-09-01T02:48:54.156Z,173.2
2017-09-01T02:49:54.953Z,172.4
2017-09-01T02:50:55.692Z,180.2
2017-09-01T02:51:56.835Z,184.5
2017-09-01T02:52:57.634Z,186.6
2017-09-01T02:53:58.449Z,165.2
2017-09-01T02:54:59.170Z,147.0
2017-09-01T02:55:59.904Z,163.5
2017-09-01T02:57:01.011Z,167.2
2017-09-01T02:58:01.822Z,170.3
2017-09-01T02:59:02.622Z,139.5
2017-09-01T03:00:03.429Z,193.5
2017-09-01T03:01:04.153Z,166.4
2017-09-01T03:02:05.360Z,203.6
2017-09-01T03:03:06.092Z,171.7
2017-09-01T03:04:06.863Z,195.3
2017-09-01T03:05:07.660Z,186.9
2017-09-01T03:06:08.413Z,191.1
2017-09-01T03:07:09.198Z,199.1
2017-09-01T03:08:09.960Z,190.2
2017-09-01T03:09:10.687Z,170.5
2017-09-01T03:10:12.563Z,214.1
2017-09-01T03:11:13.782Z,184.9
2017-09-01T03:12:14.819Z,192.3
2017-09-01T03:13:15.727Z,196.9
2017-09-01T03:14:16.530Z,208.4
2017-09-01T03:15:17.261Z,240.7
2017-09-01T03:16:18.403Z,252.2
2017-09-01T03:17:19.191Z,247.2
2017-09-01T03:18:19.916Z,231.0
2017-09-01T03:19:20.635Z,253.4
2017-09-01T03:20:21.364Z,242.7
2017-09-01T03:21:22.395Z,243.9
2017-09-01T03:22:23.215Z,221.9
2017-09-01T03:23:23.943Z,239.4
2017-09-01T03:24:24.744Z,258.7
2017-09-01T03:25:25.484Z,232.5
2017-09-01T03:26:26.215Z,250.5
2017-09-01T03:27:27.301Z,235.0
2017-09-01T03:28:28.042Z,224.8
2017-09-01T03:29:28.729Z,236.9
2017-09-01T03:30:29.509Z,220.0
2017-09-01T03:31:30.245Z,221.8
2017-09-01T03:32:31.178Z,227.6
2017-09-01T03:33:31.917Z,265.7
2017-09-01T03:34:32.732Z,281.5
2017-09-01T03:35:33.465Z,274.2
2017-09-01T03:36:34.245Z,297.8
2017-09-01T03:37:35.222Z,319.0
2017-09-01T03:38:36.015Z,278.2
2017-09-01T03:39:36.737Z,285.2
2017-09-01T03:40:37.469Z,298.5
2017-09-01T03:41:38.207Z,255.8
2017-09-01T03:42:39.335Z,280.3
2017-09-01T03:43:40.070Z,270.9
2017-09-01T03:44:40.795Z,272.3
2017-09-01T03:45:41.555Z,293.1
2017-09-01T03:46:42.245Z,264.0
2017-09-01T03:47:43.378Z,290.6
2017-09-01T03:48:44.170Z,273.4
2017-09-01T03:49:44.906Z,275.4
2017-09-01T03:50:45.712Z,292.0
2017-09-01T03:51:46.548Z,240.8
2017-09-01T03:52:47.579Z,268.0
2017-09-01T03:53:48.386Z,248.4
2017-09-01T03:54:49.108Z,274.4
2017-09-01T03:55:49.835Z,267.4
2017-09-01T03:56:50.564Z,277.4
2017-09-01T03:57:51.764Z,235.1
2017-09-01T03:58:52.495Z,290.2
2017-09-01T03:59:53.266Z,273.3
2017-09-01T04:00:53.969Z,282.7
2017-09-01T04:01:54.758Z,271.6
2017-09-01T04:02:55.856Z,282.1
2017-09-01T04:03:56.634Z,260.7
2017-09-01T04:04:57.378Z,249.0
2017-09-01T04:05:58.160Z,263.9
2017-09-01T04:06:58.944Z,266.2
2017-09-01T04:08:00.039Z,263.9
2017-09-01T04:09:00.825Z,246.5
2017-09-01T04:10:01.551Z,226.7
2017-09-01T04:11:02.375Z,244.4
2017-09-01T04:12:03.108Z,210.0
2017-09-01T04:13:03.885Z,218.5
2017-09-01T04:14:04.625Z,235.3
2017-09-01T04:15:05.415Z,258.5
2017-09-01T04:16:06.183Z,242.8
2017-09-01T04:17:06.972Z,220.7
2017-09-01T04:18:08.106Z,254.1
2017-09-01T04:19:08.931Z,217.9
2017-09-01T04:20:09.662Z,238.8
2017-09-01T04:21:10.457Z,264.8
2017-09-01T04:22:11.216Z,209.9
2017-09-01T04:23:12.239Z,210.1
2017-09-01T04:24:13.008Z,213.7
2017-09-01T04:25:13.736Z,235.9
2017-09-01T04:26:14.539Z,208.5
2017-09-01T04:27:15.313Z,254.6
2017-09-01T04:28:16.435Z,211.6
2017-09-01T04:29:17.236Z,206.8
2017-09-01T04:30:17.999Z,201.2
2017-09-01T04:31:18.790Z,246.5
2017-09-01T04:32:19.584Z,227.4
2017-09-01T04:33:20.323Z,221.9
2017-09-01T04:34:21.301Z,228.0
2017-09-01T04:35:22.035Z,257.8
2017-09-01T04:36:22.769Z,226.4
2017-09-01T04:37:23.551Z,239.9
2017-09-01T04:38:24.405Z,214.5
2017-09-01T04:39:25.583Z,240.2
2017-09-01T04:40:26.327Z,232.7
2017-09-01T04:41:27.098Z,262.2
2017-09-01T04:42:27.907Z,249.9
2017-09-01T04:43:28.681Z,229.1
2017-09-01T04:44:29.489Z,223.2
2017-09-01T04:45:30.235Z,279.3
2017-09-01T04:46:31.365Z,251.4
2017-09-01T04:47:32.115Z,250.9
2017-09-01T04:48:32.925Z,260.1
2017-09-01T04:49:33.661Z,279.3
2017-09-01T04:50:34.397Z,252.8
2017-09-01T04:51:35.478Z,301.0
2017-09-01T04:52:36.318Z,325.1
2017-09-01T04:53:37.066Z,261.7
2017-09-01T04:54:37.796Z,295.7
2017-09-01T04:55:38.595Z,315.5
2017-09-01T04:56:39.628Z,262.9
2017-09-01T04:57:40.429Z,347.0
2017-09-01T04:58:41.206Z,299.1
2017-09-01T04:59:41.928Z,256.4
2017-09-01T05:00:42.651Z,280.2
2017-09-01T05:01:43.684Z,283.5
2017-09-01T05:02:44.418Z,254.7
2017-09-01T05:03:45.237Z,309.0
2017-09-01T05:04:45.972Z,275.3
2017-09-01T05:05:46.780Z,243.6
2017-09-01T05:06:47.494Z,257.8
2017-09-01T05:07:48.315Z,269.4
2017-09-01T05:08:49.445Z,270.3
2017-09-01T05:09:50.239Z,278.8
2017-09-01T05:10:51.044Z,293.8
2017-09-01T05:11:51.785Z,317.0
2017-09-01T05:12:52.888Z,237.4
2017-09-01T05:13:55.708Z,254.8
2017-09-01T05:14:56.937Z,241.9
2017-09-01T05:15:57.942Z,246.4
2017-09-01T05:16:59.817Z,247.5
2017-09-01T05:18:01.419Z,237.1
2017-09-01T05:19:03.702Z,257.6
2017-09-01T05:20:04.379Z,270.4
2017-09-01T05:21:05.118Z,280.5
2017-09-01T05:22:06.556Z,250.7
2017-09-01T05:23:08.312Z,231.9
2017-09-01T05:24:09.335Z,270.1
2017-09-01T05:25:10.145Z,247.6
2017-09-01T05:26:10.933Z,278.3
2017-09-01T05:27:11.680Z,240.1
2017-09-01T05:28:12.463Z,250.5
2017-09-01T05:29:13.607Z,224.5
2017-09-01T05:30:14.344Z,225.5
2017-09-01T05:31:15.076Z,232.4
2017-09-01T05:32:15.814Z,273.3
2017-09-01T05:33:16.561Z,239.7
2017-09-01T05:34:17.690Z,229.9
2017-09-01T05:35:18.477Z,275.2
2017-09-01T05:36:19.224Z,248.4
2017-09-01T05:37:19.954Z,256.2
2017-09-01T05:38:20.684Z,277.6
2017-09-01T05:39:21.431Z,254.8
2017-09-01T05:40:22.225Z,264.0
2017-09-01T05:41:23.031Z,329.6
2017-09-01T05:42:23.784Z,243.7
2017-09-01T05:43:24.514Z,217.5
2017-09-01T05:44:25.581Z,226.9
2017-09-01T05:45:26.385Z,245.2
2017-09-01T05:46:27.202Z,266.5
2017-09-01T05:47:27.997Z,234.4
2017-09-01T05:48:28.754Z,228.9
2017-09-01T05:49:29.896Z,213.6
2017-09-01T05:50:30.710Z,212.2
2017-09-01T05:51:31.409Z,186.9
2017-09-01T05:52:32.148Z,180.9
2017-09-01T05:53:32.884Z,174.9
2017-09-01T05:54:33.879Z,152.0
2017-09-01T05:55:34.663Z,157.5
2017-09-01T05:56:35.394Z,175.3
2017-09-01T05:57:36.133Z,160.9
2017-09-01T05:58:36.871Z,178.6
2017-09-01T05:59:38.077Z,183.0
2017-09-01T06:00:38.794Z,151.3
2017-09-01T06:01:39.555Z,128.6
2017-09-01T06:02:40.287Z,154.0
2017-09-01T06:03:41.088Z,151.1
2017-09-01T06:04:42.089Z,142.0
2017-09-01T06:05:42.829Z,129.1
2017-09-01T06:06:43.564Z,158.0
2017-09-01T06:07:44.294Z,161.1
2017-09-01T06:08:45.044Z,136.5
2017-09-01T06:09:46.192Z,149.3
2017-09-01T06:10:46.938Z,136.3
2017-09-01T06:11:47.675Z,150.5
2017-09-01T06:12:48.489Z,152.1
2017-09-01T06:13:49.299Z,147.9
2017-09-01T06:14:50.435Z,126.7
2017-09-01T06:15:51.196Z,123.2
2017-09-01T06:16:52.003Z,123.4
2017-09-01T06:17:52.740Z,126.6
2017-09-01T06:18:53.546Z,117.0
2017-09-01T06:19:54.586Z,109.7
2017-09-01T06:20:55.318Z,128.0
2017-09-01T06:21:56.055Z,127.8
2017-09-01T06:22:56.787Z,121.9
2017-09-01T06:23:57.516Z,128.2
2017-09-01T06:24:58.604Z,110.7
2017-09-01T06:25:59.344Z,125.2
2017-09-01T06:27:00.225Z,123.1
2017-09-01T06:28:01.026Z,116.3
2017-09-01T06:29:01.759Z,121.1
2017-09-01T06:30:02.805Z,113.0
2017-09-01T06:31:03.535Z,120.8
2017-09-01T06:32:04.267Z,101.3
2017-09-01T06:33:05.074Z,109.9
2017-09-01T06:34:05.816Z,124.8
2017-09-01T06:35:06.626Z,130.7
2017-09-01T06:36:07.369Z,126.7
2017-09-01T06:37:08.185Z,129.5
2017-09-01T06:38:09.347Z,113.5
2017-09-01T06:39:10.165Z,114.8
2017-09-01T06:40:11.004Z,115.1
2017-09-01T06:41:11.798Z,105.6
2017-09-01T06:42:12.531Z,107.8
2017-09-01T06:43:13.269Z,112.0
2017-09-01T06:44:14.356Z,96.9
2017-09-01T06:45:15.100Z,104.9
2017-09-01T06:46:15.842Z,108.2
2017-09-01T06:47:16.634Z,109.2
2017-09-01T06:48:17.386Z,85.5
2017-09-01T06:49:18.554Z,77.5
2017-09-01T06:50:19.292Z,86.1
2017-09-01T06:51:20.094Z,85.9
2017-09-01T06:52:20.837Z,78.8
2017-09-01T06:53:21.629Z,81.8
2017-09-01T06:54:22.360Z,76.6
2017-09-01T06:55:23.174Z,78.6
2017-09-01T06:56:24.259Z,75.9
2017-09-01T06:57:24.998Z,74.6
2017-09-01T06:58:25.744Z,77.2
2017-09-01T06:59:26.518Z,68.4
2017-09-01T07:00:27.255Z,71.5
2017-09-01T07:01:28.020Z,70.2
2017-09-01T07:02:29.184Z,63.6
2017-09-01T07:03:29.985Z,59.6
2017-09-01T07:04:30.728Z,63.1
2017-09-01T07:05:31.484Z,61.2
2017-09-01T07:06:32.207Z,56.0
2017-09-01T07:07:33.191Z,55.1
2017-09-01T07:08:33.942Z,46.3
2017-09-01T07:09:34.676Z,52.6
2017-09-01T07:10:35.424Z,55.0
2017-09-01T07:11:36.216Z,51.4
2017-09-01T07:12:37.412Z,43.7
2017-09-01T07:13:38.148Z,44.8
2017-09-01T07:14:38.893Z,39.8
2017-09-01T07:15:39.631Z,33.5
2017-09-01T07:16:40.447Z,32.9
2017-09-01T07:17:41.544Z,26.3
2017-09-01T07:18:42.275Z,30.9
2017-09-01T07:19:43.893Z,33.9
2017-09-01T07:20:44.935Z,27.0
2017-09-01T07:21:45.745Z,35.2
2017-09-01T07:22:46.476Z,29.2
2017-09-01T07:23:47.214Z,26.2
2017-09-01T07:24:47.947Z,30.9
2017-09-01T07:25:50.200Z,24.6
2017-09-01T07:26:50.878Z,26.1
2017-09-01T07:27:51.676Z,25.7
2017-09-01T07:28:52.417Z,21.5
2017-09-01T07:29:53.296Z,19.8
2017-09-01T07:30:54.336Z,18.2
2017-09-01T07:31:55.075Z,23.7
2017-09-01T07:32:55.808Z,31.2
2017-09-01T07:33:56.549Z,22.4
2017-09-01T07:34:57.355Z,23.5
2017-09-01T07:35:58.574Z,23.4
2017-09-01T07:36:59.470Z,23.6
2017-09-01T07:38:00.295Z,24.8
2017-09-01T07:39:01.040Z,30.1
2017-09-01T07:40:01.782Z,26.7
2017-09-01T07:41:02.934Z,29.0
2017-09-01T07:42:03.670Z,24.3
2017-09-01T07:43:04.475Z,21.3
2017-09-01T07:44:05.216Z,20.5
2017-09-01T07:45:06.024Z,21.1
2017-09-01T07:46:07.060Z,23.2
2017-09-01T07:47:07.794Z,25.2
2017-09-01T07:48:08.545Z,23.0
2017-09-01T07:49:09.294Z,30.3
2017-09-01T07:50:10.034Z,20.0
2017-09-01T07:51:11.073Z,26.6
2017-09-01T07:52:11.815Z,18.1
2017-09-01T07:53:12.555Z,16.3
2017-09-01T07:54:13.289Z,15.6
2017-09-01T07:55:14.033Z,15.6
2017-09-01T07:56:14.768Z,18.2
2017-09-01T07:57:15.534Z,20.9
2017-09-01T07:58:16.528Z,13.7
2017-09-01T07:59:17.263Z,15.2
2017-09-01T08:00:18.000Z,13.8
2017-09-01T08:01:18.744Z,12.3
2017-09-01T08:02:19.485Z,16.4
2017-09-01T08:03:20.625Z,21.3
2017-09-01T08:04:21.446Z,12.2
2017-09-01T08:05:22.187Z,11.7
2017-09-01T08:06:22.928Z,14.3
2017-09-01T08:07:23.733Z,12.5
2017-09-01T08:08:24.884Z,12.9
2017-09-01T08:09:25.627Z,14.3
2017-09-01T08:10:26.419Z,13.5
2017-09-01T08:11:27.154Z,12.4
2017-09-01T08:12:27.893Z,13.2
2017-09-01T08:13:28.634Z,12.0
2017-09-01T08:14:29.688Z,13.3
2017-09-01T08:15:30.484Z,11.2
2017-09-01T08:16:31.304Z,11.3
2017-09-01T08:17:32.062Z,12.2
2017-09-01T08:18:32.862Z,12.1
2017-09-01T08:19:33.905Z,10.6
2017-09-01T08:20:34.712Z,11.8
2017-09-01T08:21:35.462Z,13.7
2017-09-01T08:22:36.270Z,13.1
2017-09-01T08:23:37.055Z,12.6
2017-09-01T08:24:37.874Z,11.0
2017-09-01T08:25:38.706Z,11.0
2017-09-01T08:26:39.509Z,11.3
2017-09-01T08:27:40.315Z,11.7
2017-09-01T08:28:41.051Z,12.2
2017-09-01T08:29:42.086Z,12.6
2017-09-01T08:30:42.904Z,12.2
2017-09-01T08:31:43.658Z,14.1
2017-09-01T08:32:44.454Z,11.7
2017-09-01T08:33:45.267Z,12.2
2017-09-01T08:34:46.435Z,11.5
2017-09-01T08:35:47.230Z,11.9
2017-09-01T08:36:47.999Z,10.5
2017-09-01T08:37:48.794Z,10.6
2017-09-01T08:38:49.807Z,12.8
2017-09-01T08:39:50.935Z,12.3
2017-09-01T08:40:51.746Z,11.1
2017-09-01T08:41:52.560Z,10.6
2017-09-01T08:42:53.385Z,12.6
2017-09-01T08:43:54.184Z,9.7
2017-09-01T08:44:54.918Z,9.9
2017-09-01T08:45:56.064Z,9.7
2017-09-01T08:46:56.823Z,8.9
2017-09-01T08:47:57.556Z,8.9
2017-09-01T08:48:58.289Z,9.3
2017-09-01T08:49:59.024Z,8.4
2017-09-01T08:51:00.175Z,12.9
2017-09-01T08:52:00.920Z,8.8
2017-09-01T08:53:01.705Z,10.5
2017-09-01T08:54:02.454Z,9.3
2017-09-01T08:55:03.193Z,11.8
2017-09-01T08:56:04.124Z,10.0
2017-09-01T08:57:04.864Z,10.4
2017-09-01T08:58:05.614Z,10.2
2017-09-01T08:59:06.344Z,11.5
2017-09-01T09:00:07.084Z,9.1
2017-09-01T09:01:07.795Z,9.3
2017-09-01T09:02:08.803Z,9.5
2017-09-01T09:03:09.644Z,9.0
2017-09-01T09:04:10.429Z,9.1
2017-09-01T09:05:11.166Z,8.6
2017-09-01T09:06:11.904Z,8.5
2017-09-01T09:07:12.970Z,9.3
2017-09-01T09:08:13.713Z,9.0
2017-09-01T09:09:14.470Z,8.4
2017-09-01T09:10:15.263Z,8.7
2017-09-01T09:11:15.999Z,7.5
2017-09-01T09:12:17.035Z,7.6
2017-09-01T09:13:17.763Z,7.6
2017-09-01T09:14:18.509Z,5.7
2017-09-01T09:15:19.256Z,7.2
2017-09-01T09:16:20.054Z,8.8
2017-09-01T09:17:21.043Z,6.4
2017-09-01T09:18:21.791Z,6.8
2017-09-01T09:19:22.594Z,7.9
2017-09-01T09:20:23.423Z,6.1
2017-09-01T09:21:24.246Z,6.4
2017-09-01T09:22:25.306Z,7.7
2017-09-01T09:23:26.111Z,7.1
2017-09-01T09:24:26.916Z,7.0
2017-09-01T09:25:27.630Z,7.0
2017-09-01T09:26:28.413Z,5.9
2017-09-01T09:27:29.354Z,10.8
2017-09-01T09:28:30.091Z,5.9
2017-09-01T09:29:30.825Z,7.2
2017-09-01T09:30:31.574Z,6.6
2017-09-01T09:31:32.315Z,6.2
2017-09-01T09:32:33.444Z,9.8
2017-09-01T09:33:34.194Z,6.4
2017-09-01T09:34:34.935Z,8.9
2017-09-01T09:35:35.675Z,6.9
2017-09-01T09:36:36.415Z,9.3
2017-09-01T09:37:37.145Z,7.9
2017-09-01T09:38:38.142Z,8.0
2017-09-01T09:39:38.942Z,7.8
2017-09-01T09:40:39.752Z,10.4
2017-09-01T09:41:40.584Z,7.8
2017-09-01T09:42:41.378Z,11.1
2017-09-01T09:43:42.568Z,7.3
2017-09-01T09:44:43.380Z,6.9
2017-09-01T09:45:44.115Z,8.3
2017-09-01T09:46:44.885Z,10.6
2017-09-01T09:47:45.630Z,9.0
2017-09-01T09:48:46.804Z,10.6
2017-09-01T09:49:47.552Z,10.1
2017-09-01T09:50:48.276Z,6.2
2017-09-01T09:51:49.014Z,6.3
2017-09-01T09:52:49.760Z,7.9
2017-09-01T09:53:50.909Z,5.4
2017-09-01T09:54:51.655Z,5.3
2017-09-01T09:55:52.401Z,5.4
2017-09-01T09:56:53.143Z,6.6
2017-09-01T09:57:53.934Z,5.4
2017-09-01T09:58:54.926Z,5.8
2017-09-01T09:59:55.668Z,8.7
2017-09-01T10:00:56.405Z,6.4
2017-09-01T10:01:57.145Z,3.9
2017-09-01T10:02:57.885Z,7.0
2017-09-01T10:03:58.706Z,5.9
2017-09-01T10:04:59.517Z,6.9
2017-09-01T10:06:00.252Z,4.5
2017-09-01T10:07:01.200Z,6.4
2017-09-01T10:08:01.989Z,6.6
2017-09-01T10:09:02.741Z,8.2
2017-09-01T10:10:03.560Z,8.7
2017-09-01T10:11:04.325Z,9.3
2017-09-01T10:12:05.426Z,8.4
2017-09-01T10:13:06.166Z,7.1
2017-09-01T10:14:06.906Z,8.9
2017-09-01T10:15:07.665Z,8.0
2017-09-01T10:16:08.415Z,8.2
2017-09-01T10:17:09.507Z,10.0
2017-09-01T10:18:10.321Z,7.1
2017-09-01T10:19:11.059Z,12.1
2017-09-01T10:20:11.796Z,14.1
2017-09-01T10:21:12.588Z,13.4
2017-09-01T10:22:13.607Z,10.4
2017-09-01T10:23:14.426Z,11.6
2017-09-01T10:24:15.260Z,13.0
2017-09-01T10:25:16.020Z,9.8
2017-09-01T10:26:16.762Z,8.3
2017-09-01T10:27:17.859Z,7.7
2017-09-01T10:28:18.691Z,13.2
2017-09-01T10:29:19.401Z,14.1
2017-09-01T10:30:20.200Z,12.3
2017-09-01T10:31:20.982Z,10.3
2017-09-01T10:32:21.778Z,10.6
2017-09-01T10:33:22.576Z,12.1
2017-09-01T10:34:23.316Z,12.1
2017-09-01T10:35:24.376Z,18.8
2017-09-01T10:36:25.120Z,11.9
2017-09-01T10:37:25.865Z,13.2
2017-09-01T10:38:26.630Z,12.7
2017-09-01T10:39:27.399Z,9.5
2017-09-01T10:40:28.497Z,13.4
2017-09-01T10:41:29.240Z,12.5
2017-09-01T10:42:30.046Z,11.6
2017-09-01T10:43:30.797Z,10.0
2017-09-01T10:44:31.609Z,12.6
2017-09-01T10:45:32.755Z,16.4
2017-09-01T10:46:33.574Z,14.4
2017-09-01T10:47:34.305Z,11.2
2017-09-01T10:48:35.121Z,10.3
2017-09-01T10:49:35.893Z,11.9
2017-09-01T10:50:36.969Z,11.2
2017-09-01T10:51:37.790Z,13.5
2017-09-01T10:52:38.620Z,14.2
2017-09-01T10:53:39.393Z,11.0
2017-09-01T10:54:40.134Z,12.8
2017-09-01T10:55:40.916Z,10.1
2017-09-01T10:56:41.662Z,11.3
2017-09-01T10:57:42.456Z,9.6
2017-09-01T10:58:43.195Z,11.0
2017-09-01T10:59:44.234Z,13.5
2017-09-01T11:00:44.971Z,10.8
2017-09-01T11:01:45.725Z,16.6
2017-09-01T11:02:46.467Z,11.0
2017-09-01T11:03:47.207Z,7.9
2017-09-01T11:04:48.208Z,12.7
2017-09-01T11:05:48.969Z,10.8
2017-09-01T11:06:49.743Z,7.7
2017-09-01T11:07:50.505Z,11.5
2017-09-01T11:08:51.208Z,9.7
2017-09-01T11:09:52.278Z,11.3
2017-09-01T11:10:53.025Z,11.2
2017-09-01T11:11:53.808Z,10.0
2017-09-01T11:12:54.545Z,8.7
2017-09-01T11:13:55.299Z,10.8
2017-09-01T11:14:56.401Z,13.0
2017-09-01T11:15:57.157Z,10.5
2017-09-01T11:16:57.969Z,12.7
2017-09-01T11:17:58.715Z,11.9
2017-09-01T11:18:59.468Z,13.2
2017-09-01T11:20:00.527Z,16.0
2017-09-01T11:21:01.257Z,16.0
2017-09-01T11:22:02.000Z,12.2
2017-09-01T11:23:02.745Z,12.0
2017-09-01T11:24:03.524Z,13.7
2017-09-01T11:25:04.715Z,10.1
2017-09-01T11:26:05.496Z,13.5
2017-09-01T11:27:06.247Z,10.5
2017-09-01T11:28:07.008Z,13.5
2017-09-01T11:29:07.747Z,12.1
2017-09-01T11:30:08.770Z,11.8
2017-09-01T11:31:09.582Z,12.4
2017-09-01T11:32:10.366Z,17.5
2017-09-01T11:33:11.120Z,10.5
2017-09-01T11:34:11.857Z,17.6
2017-09-01T11:35:12.898Z,13.8
2017-09-01T11:36:13.716Z,11.8
2017-09-01T11:37:14.474Z,10.4
2017-09-01T11:38:15.281Z,13.8
2017-09-01T11:39:16.031Z,12.3
2017-09-01T11:40:17.090Z,12.7
2017-09-01T11:41:17.908Z,12.7
2017-09-01T11:42:18.656Z,10.3
2017-09-01T11:43:19.411Z,15.7
2017-09-01T11:44:20.216Z,12.5
2017-09-01T11:45:21.327Z,11.3
2017-09-01T11:46:22.126Z,12.5
2017-09-01T11:47:22.877Z,14.7
2017-09-01T11:48:23.692Z,9.4
2017-09-01T11:49:24.437Z,16.0
2017-09-01T11:50:25.496Z,13.8
2017-09-01T11:51:26.296Z,14.8
2017-09-01T11:52:27.049Z,15.4
2017-09-01T11:53:27.871Z,12.6
2017-09-01T11:54:28.688Z,9.9
2017-09-01T11:55:29.797Z,11.8
2017-09-01T11:56:30.595Z,10.5
2017-09-01T11:57:31.334Z,14.0
2017-09-01T11:58:32.085Z,12.0
2017-09-01T11:59:32.824Z,14.8
2017-09-01T12:00:33.884Z,11.6
2017-09-01T12:01:34.691Z,8.3
2017-09-01T12:02:35.455Z,13.2
2017-09-01T12:03:36.205Z,9.4
2017-09-01T12:04:36.946Z,11.3
2017-09-01T12:05:37.996Z,11.7
2017-09-01T12:06:38.812Z,10.7
2017-09-01T12:07:39.585Z,9.6
2017-09-01T12:08:40.379Z,10.7
2017-09-01T12:09:41.176Z,11.9
2017-09-01T12:10:42.110Z,9.0
2017-09-01T12:11:42.856Z,12.7
2017-09-01T12:12:43.623Z,10.7
2017-09-01T12:13:44.402Z,10.7
2017-09-01T12:14:45.214Z,14.2
2017-09-01T12:15:46.283Z,8.4
2017-09-01T12:16:47.034Z,12.7
2017-09-01T12:17:47.776Z,9.2
2017-09-01T12:18:48.609Z,7.1
2017-09-01T12:19:49.397Z,7.9
2017-09-01T12:20:50.224Z,18.7
2017-09-01T12:21:51.038Z,10.2
2017-09-01T12:22:52.135Z,8.5
2017-09-01T12:23:52.875Z,15.6
2017-09-01T12:24:53.617Z,18.2
2017-09-01T12:25:54.356Z,10.1
2017-09-01T12:26:55.184Z,12.9
2017-09-01T12:27:56.304Z,8.8
2017-09-01T12:28:57.084Z,10.6
2017-09-01T12:29:57.828Z,14.5
2017-09-01T12:30:58.574Z,11.1
2017-09-01T12:31:59.334Z,11.1
2017-09-01T12:33:00.105Z,14.3
2017-09-01T12:34:01.089Z,9.4
2017-09-01T12:35:01.830Z,16.0
2017-09-01T12:36:02.585Z,13.4
2017-09-01T12:37:03.356Z,11.0
2017-09-01T12:38:04.115Z,9.5
2017-09-01T12:39:04.903Z,11.0
2017-09-01T12:40:06.044Z,13.4
2017-09-01T12:41:06.780Z,8.2
2017-09-01T12:42:07.590Z,10.3
2017-09-01T12:43:08.415Z,13.4
2017-09-01T12:44:09.171Z,11.1
2017-09-01T12:45:09.964Z,11.4
2017-09-01T12:46:10.947Z,10.0
2017-09-01T12:47:11.694Z,9.5
2017-09-01T12:48:12.434Z,13.0
2017-09-01T12:49:13.182Z,14.6
2017-09-01T12:50:13.966Z,10.4
2017-09-01T12:51:15.187Z,9.0
2017-09-01T12:52:15.938Z,10.3
2017-09-01T12:53:16.735Z,9.2
2017-09-01T12:54:17.549Z,12.6
2017-09-01T12:55:18.305Z,11.7
2017-09-01T12:56:19.460Z,7.8
2017-09-01T12:57:20.215Z,10.0
2017-09-01T12:58:21.014Z,8.8
2017-09-01T12:59:21.749Z,14.2
2017-09-01T13:00:22.506Z,8.3
2017-09-01T13:01:23.602Z,7.0
2017-09-01T13:02:24.347Z,12.2
2017-09-01T13:03:25.178Z,8.2
2017-09-01T13:04:25.984Z,10.5
2017-09-01T13:05:26.728Z,10.0
2017-09-01T13:06:27.882Z,13.9
2017-09-01T13:07:28.625Z,13.2
2017-09-01T13:08:29.462Z,8.2
2017-09-01T13:09:30.197Z,13.3
2017-09-01T13:10:30.940Z,8.4
2017-09-01T13:11:31.980Z,13.4
2017-09-01T13:12:32.726Z,10.5
2017-09-01T13:13:33.513Z,16.1
2017-09-01T13:14:34.253Z,13.4
2017-09-01T13:15:35.002Z,17.9
2017-09-01T13:16:35.805Z,9.5
2017-09-01T13:17:36.567Z,8.2
2017-09-01T13:18:37.350Z,14.4
2017-09-01T13:19:38.104Z,13.5
2017-09-01T13:20:38.847Z,12.4